Terminal Aerodrome Forecast
Issued by NWS

Home | Current Version | Previous Version | Text Only | Print | Product List | Glossary On
Versions: 1 2 3 4 5 6 7 8 9 10 11 12 13 14 15 16 17 18
000
FTUS44 KTSA 160500
TAFRVS
TAF
KRVS 160520Z 1606/1706 17006KT P6SM SCT250 WS020/18040KT
     FM161400 19011G20KT P6SM SCT250
     FM161700 19018G27KT P6SM SCT250
     FM170100 17008KT P6SM SCT250=

USA.gov is the U.S. government's official web portal to all federal, state and local government web resources and services.